createdAt,value
2022-10-08T00:10:47.187Z,3.03
2022-10-08T00:21:44.757Z,3.03
2022-10-08T00:32:37.960Z,3.02
2022-10-08T00:43:37.170Z,3.02
2022-10-08T00:54:33.038Z,3.02
2022-10-08T01:05:29.087Z,3.01
2022-10-08T01:16:29.857Z,3.01
2022-10-08T01:27:29.138Z,3.00
2022-10-08T01:38:26.090Z,3.00
2022-10-08T01:49:26.452Z,3.00
2022-10-08T02:00:06.499Z,2.99
2022-10-08T02:11:05.571Z,2.99
2022-10-08T02:22:01.777Z,2.99
2022-10-08T02:32:57.709Z,2.98
2022-10-08T02:43:39.618Z,2.97
2022-10-08T02:54:30.865Z,2.97
2022-10-08T03:05:21.828Z,2.97
2022-10-08T03:16:18.081Z,2.96
2022-10-08T03:27:17.493Z,2.96
2022-10-08T03:38:17.747Z,2.96
2022-10-08T03:49:17.439Z,2.96
2022-10-08T04:00:14.867Z,2.96
2022-10-08T04:11:08.043Z,2.96
2022-10-08T04:22:04.425Z,2.96
2022-10-08T04:33:00.141Z,2.96
2022-10-08T04:44:03.169Z,2.96
2022-10-08T04:55:05.470Z,2.96
2022-10-08T05:06:03.332Z,2.96
2022-10-08T05:16:59.280Z,2.96
2022-10-08T05:27:46.767Z,2.95
2022-10-08T05:38:48.536Z,2.96
2022-10-08T05:49:50.626Z,2.96
2022-10-08T06:00:43.044Z,2.96
2022-10-08T06:11:40.812Z,2.97
2022-10-08T06:22:37.282Z,2.98
2022-10-08T06:33:36.792Z,2.98
2022-10-08T06:44:40.129Z,2.99
2022-10-08T06:55:19.530Z,2.99
2022-10-08T07:06:20.578Z,3.01
2022-10-08T07:17:20.223Z,3.02
2022-10-08T07:28:17.225Z,3.03
2022-10-08T07:39:18.030Z,3.06
2022-10-08T07:50:20.238Z,3.06
2022-10-08T08:01:14.781Z,3.07
2022-10-08T08:12:14.333Z,3.09
2022-10-08T08:23:11.742Z,3.09
2022-10-08T08:34:12.636Z,3.10
2022-10-08T08:45:28.195Z,3.13
2022-10-08T08:56:17.770Z,3.15
2022-10-08T09:07:20.377Z,3.17
2022-10-08T09:18:22.215Z,3.19
2022-10-08T09:29:24.581Z,3.20
2022-10-08T09:40:25.890Z,3.25
2022-10-08T09:51:25.670Z,3.30
2022-10-08T10:02:26.130Z,3.29
2022-10-08T10:13:27.259Z,3.34
2022-10-08T10:24:22.315Z,3.37
2022-10-08T10:35:22.362Z,3.31
2022-10-08T10:46:20.916Z,3.34
2022-10-08T10:56:54.696Z,3.36
2022-10-08T11:07:56.228Z,3.37
2022-10-08T11:18:29.901Z,3.36
2022-10-08T11:29:30.165Z,3.36
2022-10-08T11:40:04.223Z,3.36
2022-10-08T11:51:04.445Z,3.33
2022-10-08T12:02:01.823Z,3.34
2022-10-08T12:13:01.921Z,3.34
2022-10-08T12:24:01.192Z,3.34
2022-10-08T12:34:53.346Z,3.36
2022-10-08T12:45:28.293Z,3.36
2022-10-08T12:56:26.164Z,3.34
2022-10-08T13:06:58.584Z,3.34
2022-10-08T13:17:30.834Z,3.34
2022-10-08T13:28:13.697Z,3.35
2022-10-08T13:38:47.117Z,3.36
2022-10-08T13:49:21.437Z,3.34
2022-10-08T13:59:52.796Z,3.34
2022-10-08T14:10:49.113Z,3.34
2022-10-08T14:21:44.044Z,3.34
2022-10-08T14:32:39.012Z,3.34
2022-10-08T14:43:22.094Z,3.37
2022-10-08T14:54:15.463Z,3.36
2022-10-08T15:05:13.670Z,3.37
2022-10-08T15:15:48.857Z,3.37
2022-10-08T15:26:46.453Z,3.36
2022-10-08T15:37:20.337Z,3.34
2022-10-08T15:48:04.527Z,3.34
2022-10-08T15:58:57.480Z,3.34
2022-10-08T16:09:55.068Z,3.32
2022-10-08T16:20:53.360Z,3.30
2022-10-08T16:31:48.617Z,3.29
2022-10-08T16:42:48.344Z,3.28
2022-10-08T16:53:47.244Z,3.26
2022-10-08T17:04:46.793Z,3.26
2022-10-08T17:15:38.321Z,3.26
2022-10-08T17:26:37.092Z,3.25
2022-10-08T17:37:35.894Z,3.25
2022-10-08T17:48:27.749Z,3.24
2022-10-08T17:59:26.725Z,3.24
2022-10-08T18:10:03.268Z,3.22
2022-10-08T18:20:59.190Z,3.22
2022-10-08T18:31:34.980Z,3.20
2022-10-08T18:42:34.440Z,3.20
2022-10-08T18:53:29.373Z,3.19
2022-10-08T19:04:23.314Z,3.19
2022-10-08T19:15:13.299Z,3.18
2022-10-08T19:26:07.546Z,3.18
2022-10-08T19:36:46.538Z,3.17
2022-10-08T19:47:38.664Z,3.16
2022-10-08T19:58:37.986Z,3.16
2022-10-08T20:09:30.887Z,3.16
2022-10-08T20:20:33.179Z,3.15
2022-10-08T20:31:11.297Z,3.15
2022-10-08T20:41:47.015Z,3.14
2022-10-08T20:52:45.067Z,3.14
2022-10-08T21:03:40.822Z,3.14
2022-10-08T21:14:16.608Z,3.13
2022-10-08T21:25:13.096Z,3.12
2022-10-08T21:36:09.729Z,3.12
2022-10-08T21:46:47.616Z,3.11
2022-10-08T21:57:26.964Z,3.10
2022-10-08T22:08:21.883Z,3.10
2022-10-08T22:19:17.801Z,3.10
2022-10-08T22:30:12.936Z,3.10
2022-10-08T22:41:10.319Z,3.10
2022-10-08T22:52:08.467Z,3.10
2022-10-08T23:03:06.978Z,3.10
2022-10-08T23:13:44.597Z,3.09
2022-10-08T23:24:41.491Z,3.09
2022-10-08T23:35:37.588Z,3.09
2022-10-08T23:46:25.994Z,3.08
2022-10-08T23:57:24.036Z,3.09
